createdAt,value
2018-04-02T00:00:06.674Z,24.30
2018-04-02T00:01:06.865Z,24.40
2018-04-02T00:02:07.017Z,26.10
2018-04-02T00:03:07.197Z,24.60
2018-04-02T00:04:07.362Z,25.30
2018-04-02T00:05:07.546Z,24.10
2018-04-02T00:06:07.706Z,25.40
2018-04-02T00:07:07.893Z,25.90
2018-04-02T00:08:08.062Z,24.50
2018-04-02T00:09:08.251Z,24.80
2018-04-02T00:10:08.415Z,26.20
2018-04-02T00:11:08.579Z,24.20
2018-04-02T00:12:08.770Z,26.40
2018-04-02T00:13:08.943Z,24.70
2018-04-02T00:14:09.104Z,25.40
2018-04-02T00:15:09.284Z,26.20
2018-04-02T00:16:09.443Z,26.10
2018-04-02T00:17:09.604Z,25.40
2018-04-02T00:18:09.770Z,26.30
2018-04-02T00:19:09.929Z,24.70
2018-04-02T00:20:10.092Z,26.50
2018-04-02T00:21:10.246Z,23.90
2018-04-02T00:22:10.412Z,26.20
2018-04-02T00:23:10.574Z,27.50
2018-04-02T00:24:10.732Z,27.80
2018-04-02T00:25:10.917Z,25.70
2018-04-02T00:26:11.089Z,28.40
2018-04-02T00:27:11.240Z,28.50
2018-04-02T00:28:11.414Z,24.20
2018-04-02T00:29:11.568Z,25.00
2018-04-02T00:30:11.734Z,25.50
2018-04-02T00:31:11.923Z,25.80
2018-04-02T00:32:12.103Z,26.40
2018-04-02T00:33:12.272Z,27.80
2018-04-02T00:34:12.417Z,24.90
2018-04-02T00:35:12.582Z,27.30
2018-04-02T00:36:12.760Z,26.20
2018-04-02T00:37:12.913Z,25.60
2018-04-02T00:38:13.091Z,26.10
2018-04-02T00:39:13.246Z,25.90
2018-04-02T00:40:13.403Z,27.80
2018-04-02T00:41:13.576Z,27.00
2018-04-02T00:42:13.745Z,24.90
2018-04-02T00:43:13.919Z,26.80
2018-04-02T00:44:14.099Z,25.40
2018-04-02T00:45:14.257Z,26.50
2018-04-02T00:46:14.423Z,28.70
2018-04-02T00:47:14.595Z,27.10
2018-04-02T00:48:14.758Z,26.20
2018-04-02T00:49:14.946Z,26.90
2018-04-02T00:50:15.140Z,27.60
2018-04-02T00:51:15.282Z,26.90
2018-04-02T00:52:15.442Z,28.90
2018-04-02T00:53:15.648Z,26.50
2018-04-02T00:54:15.788Z,26.80
2018-04-02T00:55:15.949Z,28.30
2018-04-02T00:56:16.121Z,27.20
2018-04-02T00:57:16.272Z,27.50
2018-04-02T00:58:16.442Z,25.70
2018-04-02T00:59:16.621Z,26.00
2018-04-02T01:00:16.780Z,26.10
2018-04-02T01:01:16.949Z,27.90
2018-04-02T01:02:17.123Z,27.90
2018-04-02T01:03:17.293Z,29.60
2018-04-02T01:04:17.481Z,27.00
2018-04-02T01:05:17.650Z,28.70
2018-04-02T01:06:17.773Z,29.00
2018-04-02T01:07:17.924Z,28.50
2018-04-02T01:08:18.092Z,28.90
2018-04-02T01:09:18.241Z,27.00
2018-04-02T01:10:18.422Z,26.60
2018-04-02T01:11:18.568Z,26.80
2018-04-02T01:12:18.730Z,27.40
2018-04-02T01:13:19.154Z,27.30
2018-04-02T01:14:19.073Z,27.50
2018-04-02T01:15:19.253Z,25.40
2018-04-02T01:16:19.420Z,27.30
2018-04-02T01:17:19.609Z,29.70
2018-04-02T01:18:19.775Z,27.30
2018-04-02T01:19:19.941Z,26.10
2018-04-02T01:20:20.102Z,25.50
2018-04-02T01:21:20.276Z,25.60
2018-04-02T01:22:20.442Z,27.10
2018-04-02T01:23:20.618Z,26.90
2018-04-02T01:24:20.791Z,25.10
2018-04-02T01:25:20.959Z,24.90
2018-04-02T01:26:21.134Z,25.90
2018-04-02T01:27:21.287Z,26.70
2018-04-02T01:28:21.452Z,24.60
2018-04-02T01:29:21.622Z,25.50
2018-04-02T01:30:21.814Z,26.10
2018-04-02T01:31:21.967Z,26.60
2018-04-02T01:32:22.138Z,28.00
2018-04-02T01:33:22.291Z,26.20
2018-04-02T01:34:22.466Z,25.90
2018-04-02T01:35:22.609Z,26.40
2018-04-02T01:36:22.808Z,26.10
2018-04-02T01:37:22.934Z,27.40
2018-04-02T01:38:23.120Z,26.50
2018-04-02T01:39:23.296Z,27.10
2018-04-02T01:40:23.448Z,26.70
2018-04-02T01:41:23.638Z,28.60
2018-04-02T01:42:23.795Z,24.90
2018-04-02T01:43:23.980Z,25.50
2018-04-02T01:44:24.127Z,25.10
2018-04-02T01:45:31.944Z,26.30
2018-04-02T01:46:24.477Z,28.00
2018-04-02T01:47:24.645Z,28.00
2018-04-02T01:48:24.822Z,27.40
2018-04-02T01:50:25.174Z,26.00
2018-04-02T01:51:25.350Z,27.30
2018-04-02T01:52:25.524Z,29.70
2018-04-02T01:53:25.697Z,27.30
2018-04-02T01:54:33.505Z,27.50
2018-04-02T01:55:26.055Z,28.30
2018-04-02T01:56:26.226Z,26.60
2018-04-02T01:57:26.404Z,27.60
2018-04-02T01:58:26.580Z,26.70
2018-04-02T01:59:26.760Z,28.40
2018-04-02T02:00:34.560Z,29.30
2018-04-02T02:01:34.728Z,26.90
2018-04-02T02:02:27.276Z,26.70
2018-04-02T02:03:27.440Z,28.60
2018-04-02T02:04:28.582Z,26.50
2018-04-02T02:05:27.755Z,27.20
2018-04-02T02:06:27.931Z,26.90
2018-04-02T02:07:28.110Z,26.70
2018-04-02T02:08:28.273Z,28.00
2018-04-02T02:09:28.455Z,27.90
2018-04-02T02:10:28.629Z,26.90
2018-04-02T02:11:28.806Z,28.00
2018-04-02T02:12:29.238Z,28.60
2018-04-02T02:13:29.129Z,28.50
2018-04-02T02:14:29.303Z,27.00
2018-04-02T02:15:29.471Z,29.00
2018-04-02T02:16:29.644Z,28.20
2018-04-02T02:17:29.808Z,29.20
2018-04-02T02:18:30.034Z,29.40
2018-04-02T02:19:30.167Z,29.00
2018-04-02T02:20:30.332Z,29.80
2018-04-02T02:21:30.508Z,30.50
2018-04-02T02:23:30.854Z,28.70
2018-04-02T02:24:31.030Z,29.80
2018-04-02T02:26:31.372Z,31.30
2018-04-02T02:27:31.540Z,29.90
2018-04-02T02:28:31.724Z,27.60
2018-04-02T02:29:31.895Z,29.10
2018-04-02T02:30:32.064Z,29.70
2018-04-02T02:31:32.232Z,31.20
2018-04-02T02:32:32.411Z,31.50
2018-04-02T02:33:32.586Z,31.10
2018-04-02T02:34:32.753Z,30.40
2018-04-02T02:36:33.104Z,30.10
2018-04-02T02:37:33.279Z,31.00
2018-04-02T02:38:33.455Z,30.10
2018-04-02T02:39:33.628Z,28.10
2018-04-02T02:40:33.802Z,30.50
2018-04-02T02:41:33.981Z,28.90
2018-04-02T02:42:34.161Z,31.00
2018-04-02T02:43:34.330Z,30.00
2018-04-02T02:44:34.505Z,30.50
2018-04-02T02:45:34.671Z,31.20
2018-04-02T02:46:34.847Z,30.80
2018-04-02T02:47:35.016Z,29.90
2018-04-02T02:48:35.189Z,30.90
2018-04-02T02:49:35.362Z,30.10
2018-04-02T02:50:35.534Z,29.10
2018-04-02T02:51:35.707Z,31.30
2018-04-02T02:52:35.884Z,29.00
2018-04-02T02:53:36.061Z,32.90
2018-04-02T02:54:36.280Z,28.70
2018-04-02T02:55:36.402Z,32.50
2018-04-02T02:56:36.698Z,31.00
2018-04-02T02:57:36.997Z,31.70
2018-04-02T02:58:36.992Z,30.30
2018-04-02T02:59:37.204Z,30.60
2018-04-02T03:00:37.342Z,30.80
2018-04-02T03:01:37.519Z,30.60
2018-04-02T03:02:37.697Z,31.10
2018-04-02T03:03:37.874Z,30.70
2018-04-02T03:04:38.036Z,33.40
2018-04-02T03:05:38.197Z,30.40
2018-04-02T03:06:38.378Z,31.30
2018-04-02T03:07:38.541Z,31.90
2018-04-02T03:08:38.716Z,32.70
2018-04-02T03:09:38.897Z,30.80
2018-04-02T03:10:39.056Z,31.70
2018-04-02T03:11:39.230Z,32.40
2018-04-02T03:12:39.663Z,30.80
2018-04-02T03:13:39.571Z,33.50
2018-04-02T03:14:39.745Z,31.20
2018-04-02T03:15:39.937Z,32.90
2018-04-02T03:16:40.099Z,33.50
2018-04-02T03:17:40.271Z,31.60
2018-04-02T03:18:40.446Z,32.20
2018-04-02T03:19:40.624Z,31.70
2018-04-02T03:20:40.806Z,31.70
2018-04-02T03:21:40.973Z,32.80
2018-04-02T03:22:41.156Z,31.80
2018-04-02T03:23:41.324Z,32.70
2018-04-02T03:24:41.498Z,33.20
2018-04-02T03:25:41.672Z,32.70
2018-04-02T03:26:41.845Z,31.50
2018-04-02T03:27:42.033Z,34.30
2018-04-02T03:28:42.198Z,32.50
2018-04-02T03:29:42.372Z,31.00
2018-04-02T03:30:42.545Z,31.60
2018-04-02T03:31:42.721Z,31.70
2018-04-02T03:32:42.900Z,32.80
2018-04-02T03:33:43.073Z,32.80
2018-04-02T03:34:43.250Z,30.30
2018-04-02T03:35:43.426Z,32.20
2018-04-02T03:36:43.597Z,32.40
2018-04-02T03:37:43.777Z,32.50
2018-04-02T03:38:43.954Z,35.00
2018-04-02T03:39:44.131Z,32.90
2018-04-02T03:40:44.299Z,34.40
2018-04-02T03:41:44.475Z,34.00
2018-04-02T03:42:44.647Z,35.70
2018-04-02T03:43:44.818Z,33.10
2018-04-02T03:44:45.003Z,35.60
2018-04-02T03:45:45.174Z,36.50
2018-04-02T03:46:45.347Z,35.00
2018-04-02T03:47:45.521Z,34.60
2018-04-02T03:48:45.696Z,34.30
2018-04-02T03:49:45.900Z,34.20
2018-04-02T03:50:46.046Z,33.80
2018-04-02T03:51:46.211Z,34.30
2018-04-02T03:52:46.385Z,33.40
2018-04-02T03:53:46.553Z,31.60
2018-04-02T03:54:46.730Z,34.20
2018-04-02T03:55:46.892Z,32.50
2018-04-02T03:56:47.065Z,35.50
2018-04-02T03:57:47.234Z,33.40
2018-04-02T03:58:47.409Z,32.80
2018-04-02T03:59:47.586Z,36.70
2018-04-02T04:00:47.748Z,35.10
2018-04-02T04:01:47.927Z,33.80
2018-04-02T04:02:48.099Z,35.00
2018-04-02T04:03:48.274Z,32.00
2018-04-02T04:04:48.450Z,36.00
2018-04-02T04:05:48.639Z,36.30
2018-04-02T04:06:48.783Z,37.00
2018-04-02T04:07:48.947Z,36.80
2018-04-02T04:08:49.119Z,34.60
2018-04-02T04:09:49.298Z,35.80
2018-04-02T04:10:49.469Z,36.70
2018-04-02T04:11:49.636Z,35.40
2018-04-02T04:12:49.807Z,36.70
2018-04-02T04:13:49.993Z,31.90
2018-04-02T04:14:50.159Z,34.30
2018-04-02T04:15:50.334Z,35.40
2018-04-02T04:16:50.510Z,36.70
2018-04-02T04:17:50.680Z,37.20
2018-04-02T04:19:51.028Z,35.10
2018-04-02T04:20:51.186Z,35.40
2018-04-02T04:21:51.360Z,34.60
2018-04-02T04:22:51.539Z,35.70
2018-04-02T04:23:51.708Z,37.60
2018-04-02T04:24:51.886Z,35.10
2018-04-02T04:25:52.069Z,36.20
2018-04-02T04:26:52.238Z,36.70
2018-04-02T04:27:52.416Z,40.10
2018-04-02T04:28:52.925Z,38.30
2018-04-02T04:29:52.764Z,39.90
2018-04-02T04:30:52.989Z,43.00
2018-04-02T04:31:53.137Z,43.70
2018-04-02T04:32:53.290Z,42.00
2018-04-02T04:33:53.457Z,45.20
2018-04-02T04:34:53.627Z,47.50
2018-04-02T04:35:53.804Z,44.40
2018-04-02T04:36:53.978Z,46.80
2018-04-02T04:37:54.152Z,48.30
2018-04-02T04:38:54.378Z,50.20
2018-04-02T04:39:54.501Z,50.10
2018-04-02T04:40:54.677Z,51.10
2018-04-02T04:42:55.020Z,53.40
2018-04-02T04:43:55.198Z,49.60
2018-04-02T04:44:55.375Z,51.70
2018-04-02T04:45:55.545Z,53.20
2018-04-02T04:46:55.734Z,53.70
2018-04-02T04:47:55.889Z,50.40
2018-04-02T04:48:56.069Z,50.30
2018-04-02T04:49:56.240Z,54.10
2018-04-02T04:50:56.416Z,53.10
2018-04-02T04:51:56.603Z,50.60
2018-04-02T04:52:56.777Z,50.30
2018-04-02T04:53:56.943Z,54.50
2018-04-02T04:54:57.121Z,54.00
2018-04-02T04:55:57.294Z,52.60
2018-04-02T04:56:57.471Z,53.00
2018-04-02T04:57:57.642Z,51.20
2018-04-02T04:58:57.817Z,52.90
2018-04-02T04:59:57.979Z,51.50
2018-04-02T05:00:58.147Z,51.80
2018-04-02T05:01:58.332Z,51.90
2018-04-02T05:02:58.494Z,53.60
2018-04-02T05:03:58.671Z,54.30
2018-04-02T05:04:58.849Z,49.70
2018-04-02T05:05:59.022Z,51.80
2018-04-02T05:06:59.201Z,51.80
2018-04-02T05:07:59.368Z,51.40
2018-04-02T05:08:59.537Z,49.70
2018-04-02T05:09:59.706Z,51.40
2018-04-02T05:10:59.882Z,49.80
2018-04-02T05:12:00.056Z,50.90
2018-04-02T05:13:00.222Z,51.70
2018-04-02T05:14:00.397Z,52.80
2018-04-02T05:15:00.567Z,50.40
2018-04-02T05:16:00.742Z,47.00
2018-04-02T05:17:00.917Z,49.40
2018-04-02T05:18:01.099Z,50.10
2018-04-02T05:19:01.267Z,47.00
2018-04-02T05:20:01.441Z,50.10
2018-04-02T05:21:01.615Z,49.50
2018-04-02T05:22:01.800Z,50.90
2018-04-02T05:23:01.978Z,50.30
2018-04-02T05:24:02.151Z,50.10
2018-04-02T05:25:02.340Z,51.40
2018-04-02T05:26:02.496Z,51.50
2018-04-02T05:27:02.678Z,49.20
2018-04-02T05:28:02.853Z,44.90
2018-04-02T05:29:03.026Z,45.20
2018-04-02T05:30:03.192Z,43.40
2018-04-02T05:31:03.368Z,45.80
2018-04-02T05:32:03.547Z,46.20
2018-04-02T05:33:03.721Z,44.90
2018-04-02T05:34:03.895Z,46.60
2018-04-02T05:35:04.069Z,49.20
2018-04-02T05:36:04.231Z,51.50
2018-04-02T05:37:04.406Z,49.30
2018-04-02T05:38:04.583Z,50.10
2018-04-02T05:39:04.763Z,52.40
2018-04-02T05:40:04.928Z,51.00
2018-04-02T05:41:05.101Z,48.70
2018-04-02T05:42:05.520Z,50.80
2018-04-02T05:43:05.458Z,51.60
2018-04-02T05:44:05.639Z,50.40
2018-04-02T05:45:05.804Z,54.10
2018-04-02T05:46:05.981Z,51.10
2018-04-02T05:47:06.146Z,50.70
2018-04-02T05:48:06.313Z,50.00
2018-04-02T05:49:06.489Z,50.60
2018-04-02T05:50:06.664Z,51.30
2018-04-02T05:51:06.846Z,52.00
2018-04-02T05:52:07.013Z,51.90
2018-04-02T05:53:07.187Z,50.40
2018-04-02T05:54:07.375Z,51.00
2018-04-02T05:55:07.532Z,49.80
2018-04-02T05:56:07.716Z,51.40
2018-04-02T05:57:07.889Z,52.40
2018-04-02T05:58:08.059Z,52.60
2018-04-02T05:59:08.235Z,48.80
2018-04-02T06:00:08.406Z,50.80
2018-04-02T06:01:08.587Z,50.00
2018-04-02T06:02:08.762Z,50.20
2018-04-02T06:03:08.940Z,49.70
2018-04-02T06:04:09.111Z,51.70
2018-04-02T06:06:09.459Z,48.60
2018-04-02T06:07:09.635Z,50.20
2018-04-02T06:08:09.803Z,49.80
2018-04-02T06:09:09.968Z,46.90
2018-04-02T06:10:10.146Z,49.80
2018-04-02T06:11:10.315Z,50.40
2018-04-02T06:12:10.495Z,50.20
2018-04-02T06:13:10.671Z,49.20
2018-04-02T06:14:10.847Z,49.30
2018-04-02T06:15:11.027Z,47.10
2018-04-02T06:16:11.200Z,49.60
2018-04-02T06:17:11.374Z,50.80
2018-04-02T06:18:11.552Z,49.60
2018-04-02T06:19:11.716Z,51.70
2018-04-02T06:20:11.893Z,48.50
2018-04-02T06:21:12.065Z,47.80
2018-04-02T06:22:12.228Z,49.60
2018-04-02T06:23:12.408Z,49.40
2018-04-02T06:24:12.578Z,48.40
2018-04-02T06:25:12.758Z,48.60
2018-04-02T06:26:12.938Z,50.60
2018-04-02T06:27:13.083Z,49.00
2018-04-02T06:28:13.252Z,47.10
2018-04-02T06:29:13.424Z,48.20
2018-04-02T06:30:13.599Z,49.90
2018-04-02T06:31:13.770Z,50.30
2018-04-02T06:32:13.946Z,47.60
2018-04-02T06:33:14.114Z,47.20
2018-04-02T06:34:14.286Z,47.00
2018-04-02T06:35:14.462Z,44.90
2018-04-02T06:36:14.641Z,47.40
2018-04-02T06:37:14.821Z,47.30
2018-04-02T06:38:14.995Z,48.80
2018-04-02T06:39:15.166Z,46.20
2018-04-02T06:40:15.346Z,45.00
2018-04-02T06:41:15.526Z,45.10
2018-04-02T06:42:15.707Z,45.80
2018-04-02T06:43:15.885Z,43.90
2018-04-02T06:44:16.061Z,43.50
2018-04-02T06:45:16.230Z,44.90
2018-04-02T06:46:16.412Z,43.00
2018-04-02T06:47:16.595Z,42.30
2018-04-02T06:48:16.749Z,42.10
2018-04-02T06:49:16.916Z,44.20
2018-04-02T06:50:17.073Z,44.00
2018-04-02T06:51:17.253Z,42.90
2018-04-02T06:52:17.413Z,43.90
2018-04-02T06:53:17.601Z,41.60
2018-04-02T06:54:17.800Z,42.80
2018-04-02T06:55:17.908Z,43.00
2018-04-02T06:56:18.114Z,45.50
2018-04-02T06:57:18.241Z,42.20
2018-04-02T06:58:18.418Z,42.40
2018-04-02T06:59:18.578Z,46.40
2018-04-02T07:00:18.778Z,41.00
2018-04-02T07:02:19.081Z,44.30
2018-04-02T07:03:19.268Z,43.40
2018-04-02T07:04:19.410Z,41.90
2018-04-02T07:05:19.596Z,41.60
2018-04-02T07:06:19.753Z,43.70
2018-04-02T07:07:19.926Z,41.00
2018-04-02T07:08:20.083Z,41.20
2018-04-02T07:09:20.253Z,42.40
2018-04-02T07:10:20.431Z,39.00
2018-04-02T07:11:20.579Z,38.70
2018-04-02T07:12:20.750Z,40.90
2018-04-02T07:13:20.937Z,41.90
2018-04-02T07:14:21.138Z,40.70
2018-04-02T07:15:21.288Z,39.30
2018-04-02T07:16:21.463Z,38.80
2018-04-02T07:17:21.696Z,38.40
2018-04-02T07:18:21.821Z,38.30
2018-04-02T07:19:21.991Z,40.30
2018-04-02T07:20:22.149Z,41.00
2018-04-02T07:21:22.331Z,38.30
2018-04-02T07:22:22.471Z,40.70
2018-04-02T07:23:22.657Z,40.50
2018-04-02T07:24:22.815Z,39.10
2018-04-02T07:25:22.973Z,41.70
2018-04-02T07:26:23.157Z,40.20
2018-04-02T07:27:23.314Z,40.10
2018-04-02T07:28:23.497Z,38.30
2018-04-02T07:29:23.733Z,41.00
2018-04-02T07:30:23.860Z,41.50
2018-04-02T07:31:24.037Z,38.90
2018-04-02T07:32:24.222Z,41.20
2018-04-02T07:33:24.375Z,43.40
2018-04-02T07:35:24.702Z,42.80
2018-04-02T07:36:24.865Z,43.10
2018-04-02T07:37:25.102Z,42.60
2018-04-02T07:38:25.193Z,44.20
2018-04-02T07:39:25.376Z,42.20
2018-04-02T07:40:25.540Z,44.20
2018-04-02T07:41:25.704Z,42.50
2018-04-02T07:42:25.872Z,41.80
2018-04-02T07:43:26.068Z,42.80
2018-04-02T07:44:26.243Z,46.00
2018-04-02T07:45:26.391Z,44.60
2018-04-02T07:46:26.574Z,48.20
2018-04-02T07:47:26.743Z,42.70
2018-04-02T07:48:26.925Z,46.10
2018-04-02T07:49:27.084Z,46.20
2018-04-02T07:50:27.254Z,43.50
2018-04-02T07:51:27.401Z,44.40
2018-04-02T07:52:27.572Z,41.60
2018-04-02T07:54:27.918Z,43.30
2018-04-02T07:55:28.097Z,43.20
2018-04-02T07:56:28.259Z,42.30
2018-04-02T07:57:28.429Z,40.40
2018-04-02T07:58:28.604Z,43.30
2018-04-02T07:59:28.816Z,41.60
2018-04-02T08:00:28.943Z,42.20
2018-04-02T08:01:29.141Z,43.50
2018-04-02T08:02:29.305Z,44.10
2018-04-02T08:03:29.488Z,43.20
2018-04-02T08:04:29.668Z,43.20
2018-04-02T08:05:29.840Z,42.50
2018-04-02T08:06:30.015Z,46.80
2018-04-02T08:07:30.181Z,46.60
2018-04-02T08:08:30.378Z,46.60
2018-04-02T08:09:30.521Z,45.70
2018-04-02T08:10:30.712Z,46.70
2018-04-02T08:11:30.893Z,45.10
2018-04-02T08:12:31.040Z,45.30
2018-04-02T08:13:31.271Z,44.20
2018-04-02T08:14:31.395Z,47.00
2018-04-02T08:15:31.579Z,47.90
2018-04-02T08:16:31.789Z,45.60
2018-04-02T08:17:31.901Z,48.50
2018-04-02T08:18:32.061Z,47.70
2018-04-02T08:19:32.242Z,46.80
2018-04-02T08:20:32.422Z,45.60
2018-04-02T08:21:32.606Z,45.40
2018-04-02T08:22:32.779Z,46.10
2018-04-02T08:23:32.940Z,47.70
2018-04-02T08:24:33.102Z,45.60
2018-04-02T08:25:33.311Z,44.60
2018-04-02T08:26:33.451Z,44.60
2018-04-02T08:27:33.619Z,46.90
2018-04-02T08:28:33.769Z,45.40
2018-04-02T08:29:33.936Z,48.70
2018-04-02T08:30:34.138Z,42.40
2018-04-02T08:31:34.328Z,42.40
2018-04-02T08:32:34.475Z,44.50
2018-04-02T08:33:34.870Z,46.10
2018-04-02T08:34:34.782Z,41.20
2018-04-02T08:35:34.965Z,44.20
2018-04-02T08:36:35.188Z,44.70
2018-04-02T08:37:35.338Z,46.40
2018-04-02T08:38:35.560Z,45.10
2018-04-02T08:39:35.718Z,44.30
2018-04-02T08:40:35.886Z,40.20
2018-04-02T08:41:36.032Z,42.50
2018-04-02T08:42:36.196Z,42.20
2018-04-02T08:43:36.390Z,41.40
2018-04-02T08:44:36.565Z,42.30
2018-04-02T08:45:36.778Z,43.90
2018-04-02T08:46:36.879Z,42.80
2018-04-02T08:47:37.050Z,42.80
2018-04-02T08:48:37.255Z,45.40
2018-04-02T08:49:37.450Z,43.20
2018-04-02T08:50:37.600Z,43.00
2018-04-02T08:51:37.763Z,44.00
2018-04-02T08:52:37.949Z,46.00
2018-04-02T08:53:38.111Z,44.50
2018-04-02T08:54:38.290Z,41.50
2018-04-02T08:55:38.466Z,44.60
2018-04-02T08:56:38.625Z,44.40
2018-04-02T08:57:38.793Z,45.90
2018-04-02T08:58:38.972Z,43.00
2018-04-02T08:59:39.152Z,43.60
2018-04-02T09:00:39.334Z,41.60
2018-04-02T09:01:39.528Z,42.30
2018-04-02T09:02:39.723Z,43.60
2018-04-02T09:03:39.817Z,45.90
2018-04-02T09:04:39.989Z,45.10
2018-04-02T09:05:40.145Z,43.70
2018-04-02T09:06:40.348Z,46.90
2018-04-02T09:07:40.525Z,42.30
2018-04-02T09:08:40.660Z,41.40
2018-04-02T09:09:40.864Z,41.10
2018-04-02T09:10:40.998Z,38.90
2018-04-02T09:11:41.166Z,41.20
2018-04-02T09:12:41.381Z,40.00
2018-04-02T09:13:41.527Z,41.30
2018-04-02T09:14:41.696Z,37.50
2018-04-02T09:15:41.887Z,39.10
2018-04-02T09:16:42.029Z,40.30
2018-04-02T09:17:42.221Z,40.30
2018-04-02T09:18:42.411Z,38.60
2018-04-02T09:19:42.561Z,38.30
2018-04-02T09:20:42.727Z,39.90
2018-04-02T09:21:42.905Z,39.40
2018-04-02T09:22:43.111Z,36.90
2018-04-02T09:23:43.273Z,38.90
2018-04-02T09:24:43.432Z,36.20
2018-04-02T09:25:43.601Z,38.00
2018-04-02T09:26:43.778Z,38.40
2018-04-02T09:27:43.949Z,39.30
2018-04-02T09:28:44.110Z,39.70
2018-04-02T09:29:44.289Z,37.20
2018-04-02T09:30:44.464Z,34.80
2018-04-02T09:31:44.634Z,37.10
2018-04-02T09:32:44.881Z,35.80
2018-04-02T09:33:44.996Z,33.60
2018-04-02T09:34:45.165Z,34.50
2018-04-02T09:35:45.344Z,35.20
2018-04-02T09:36:45.518Z,36.90
2018-04-02T09:37:45.714Z,31.90
2018-04-02T09:38:45.865Z,31.80
2018-04-02T09:39:46.046Z,31.50
2018-04-02T09:40:46.237Z,32.60
2018-04-02T09:41:46.375Z,30.50
2018-04-02T09:42:46.551Z,29.70
2018-04-02T09:43:46.748Z,30.80
2018-04-02T09:44:46.899Z,31.40
2018-04-02T09:45:47.107Z,28.50
2018-04-02T09:46:47.246Z,34.50
2018-04-02T09:47:47.496Z,28.20
2018-04-02T09:48:47.602Z,27.10
2018-04-02T09:49:47.805Z,28.00
2018-04-02T09:50:48.032Z,29.30
2018-04-02T09:51:48.191Z,27.70
2018-04-02T09:52:48.358Z,28.80
2018-04-02T09:53:48.511Z,29.30
2018-04-02T09:54:48.695Z,30.00
2018-04-02T09:55:48.867Z,30.20
2018-04-02T09:56:49.079Z,29.70
2018-04-02T09:57:49.222Z,31.10
2018-04-02T09:58:49.380Z,29.70
2018-04-02T09:59:49.552Z,31.70
2018-04-02T10:00:49.730Z,29.70
2018-04-02T10:01:49.877Z,32.50
2018-04-02T10:02:50.058Z,27.80
2018-04-02T10:03:50.254Z,27.60
2018-04-02T10:04:50.467Z,28.30
2018-04-02T10:05:50.588Z,26.40
2018-04-02T10:06:50.779Z,28.20
2018-04-02T10:07:50.938Z,28.40
2018-04-02T10:08:51.149Z,28.30
2018-04-02T10:09:51.330Z,23.80
2018-04-02T10:10:51.452Z,22.70
2018-04-02T10:11:51.625Z,19.40
2018-04-02T10:12:51.799Z,21.30
2018-04-02T10:13:52.005Z,22.10
2018-04-02T10:14:52.153Z,20.80
2018-04-02T10:15:52.324Z,22.40
2018-04-02T10:16:52.485Z,21.20
2018-04-02T10:17:52.671Z,22.20
2018-04-02T10:18:52.830Z,21.70
2018-04-02T10:19:53.243Z,20.70
2018-04-02T10:20:53.175Z,24.70
2018-04-02T10:21:53.320Z,20.80
2018-04-02T10:22:53.510Z,22.30
2018-04-02T10:23:53.760Z,25.70
2018-04-02T10:24:53.890Z,22.10
2018-04-02T10:25:54.029Z,20.00
2018-04-02T10:26:54.206Z,21.70
2018-04-02T10:27:54.361Z,21.70
2018-04-02T10:28:54.535Z,22.60
2018-04-02T10:29:54.743Z,20.00
2018-04-02T10:30:54.903Z,20.40
2018-04-02T10:31:55.106Z,17.60
2018-04-02T10:32:55.309Z,18.00
2018-04-02T10:33:55.476Z,23.40
2018-04-02T10:34:55.796Z,18.30
2018-04-02T10:35:55.917Z,18.00
2018-04-02T10:36:56.038Z,18.40
2018-04-02T10:37:56.213Z,24.10
2018-04-02T10:38:56.390Z,20.20
2018-04-02T10:39:56.562Z,20.80
2018-04-02T10:40:56.722Z,25.10
2018-04-02T10:41:56.884Z,15.80
2018-04-02T10:42:57.075Z,17.20
2018-04-02T10:43:57.213Z,17.60
2018-04-02T10:44:57.480Z,16.10
2018-04-02T10:45:57.584Z,15.40
2018-04-02T10:46:57.755Z,15.90
2018-04-02T10:47:57.928Z,16.20
2018-04-02T10:48:58.116Z,17.20
2018-04-02T10:49:58.314Z,17.20
2018-04-02T10:50:58.474Z,14.60
2018-04-02T10:51:58.662Z,16.40
2018-04-02T10:52:58.819Z,16.70
2018-04-02T10:53:58.975Z,16.60
2018-04-02T10:54:59.219Z,15.70
2018-04-02T10:55:59.371Z,15.90
2018-04-02T10:56:59.547Z,14.30
2018-04-02T10:57:59.734Z,13.80
2018-04-02T10:58:59.905Z,11.20
2018-04-02T11:00:00.083Z,11.60
2018-04-02T11:01:00.277Z,12.10
2018-04-02T11:02:00.501Z,14.50
2018-04-02T11:03:00.622Z,12.20
2018-04-02T11:04:00.819Z,11.50
2018-04-02T11:05:01.004Z,10.70
2018-04-02T11:06:01.631Z,11.10
2018-04-02T11:07:01.595Z,10.50
2018-04-02T11:08:01.522Z,10.50
2018-04-02T11:09:01.747Z,11.10
2018-04-02T11:10:01.896Z,11.50
2018-04-02T11:11:02.082Z,9.60
2018-04-02T11:12:02.240Z,10.50
2018-04-02T11:13:02.417Z,10.30
2018-04-02T11:14:02.612Z,10.50
2018-04-02T11:15:02.792Z,11.80
2018-04-02T11:16:02.940Z,10.80
2018-04-02T11:17:03.071Z,11.30
2018-04-02T11:18:03.244Z,10.80
2018-04-02T11:19:03.417Z,11.00
2018-04-02T11:20:03.603Z,11.10
2018-04-02T11:21:03.788Z,13.70
2018-04-02T11:22:03.952Z,11.90
2018-04-02T11:23:04.105Z,13.00
2018-04-02T11:24:04.273Z,14.80
2018-04-02T11:25:04.449Z,13.90
2018-04-02T11:26:04.642Z,15.20
2018-04-02T11:27:04.826Z,15.00
2018-04-02T11:28:04.966Z,11.70
2018-04-02T11:29:05.125Z,10.40
2018-04-02T11:30:05.318Z,9.40
2018-04-02T11:31:05.507Z,12.10
2018-04-02T11:32:05.700Z,12.00
2018-04-02T11:33:05.884Z,8.80
2018-04-02T11:34:06.029Z,8.80
2018-04-02T11:35:06.191Z,9.60
2018-04-02T11:36:06.376Z,12.00
2018-04-02T11:37:06.587Z,10.50
2018-04-02T11:38:06.757Z,9.40
2018-04-02T11:39:06.918Z,11.00
2018-04-02T11:40:07.086Z,12.60
2018-04-02T11:41:07.303Z,10.30
2018-04-02T11:42:07.460Z,11.00
2018-04-02T11:43:07.593Z,10.70
2018-04-02T11:44:07.756Z,10.40
2018-04-02T11:45:07.935Z,13.50
2018-04-02T11:46:08.086Z,11.20
2018-04-02T11:47:08.271Z,9.70
2018-04-02T11:48:08.461Z,11.40
2018-04-02T11:49:08.663Z,11.50
2018-04-02T11:50:08.808Z,9.70
2018-04-02T11:51:09.008Z,8.40
2018-04-02T11:52:09.144Z,8.50
2018-04-02T11:53:09.307Z,8.10
2018-04-02T11:54:09.517Z,9.10
2018-04-02T11:55:09.663Z,11.50
2018-04-02T11:56:09.876Z,8.20
2018-04-02T11:57:10.037Z,9.20
2018-04-02T11:58:10.179Z,7.40
2018-04-02T11:59:10.389Z,8.50
2018-04-02T12:00:10.520Z,8.20
2018-04-02T12:01:10.738Z,7.30
2018-04-02T12:02:10.909Z,7.20
2018-04-02T12:03:11.059Z,7.50
2018-04-02T12:04:11.241Z,8.90
2018-04-02T12:05:11.425Z,9.50
2018-04-02T12:06:11.586Z,13.60
2018-04-02T12:07:11.781Z,10.10
2018-04-02T12:08:11.988Z,8.50
2018-04-02T12:09:12.285Z,9.40
2018-04-02T12:10:12.399Z,8.10
2018-04-02T12:11:12.584Z,6.80
2018-04-02T12:12:12.784Z,7.50
2018-04-02T12:13:12.972Z,8.60
2018-04-02T12:14:13.172Z,8.30
2018-04-02T12:15:13.360Z,6.40
2018-04-02T12:16:13.552Z,8.30
2018-04-02T12:17:13.740Z,7.90
2018-04-02T12:18:13.901Z,8.30
2018-04-02T12:19:14.074Z,7.80
2018-04-02T12:20:14.231Z,6.20
2018-04-02T12:21:14.396Z,7.30
2018-04-02T12:22:14.570Z,6.90
2018-04-02T12:23:14.747Z,7.70
2018-04-02T12:24:14.894Z,7.50
2018-04-02T12:25:15.078Z,6.60
2018-04-02T12:26:15.257Z,7.60
2018-04-02T12:27:15.408Z,8.90
2018-04-02T12:28:15.582Z,14.10
2018-04-02T12:29:15.742Z,10.10
2018-04-02T12:30:15.931Z,8.20
2018-04-02T12:31:16.141Z,9.20
2018-04-02T12:32:16.344Z,6.80
2018-04-02T12:33:16.479Z,6.70
2018-04-02T12:34:16.672Z,7.20
2018-04-02T12:35:16.825Z,7.10
2018-04-02T12:36:17.029Z,8.30
2018-04-02T12:37:17.208Z,7.20
2018-04-02T12:38:17.370Z,7.60
2018-04-02T12:39:17.557Z,7.80
2018-04-02T12:40:17.752Z,7.80
2018-04-02T12:41:17.869Z,7.70
2018-04-02T12:42:18.042Z,7.10
2018-04-02T12:43:18.286Z,7.30
2018-04-02T12:44:18.411Z,8.10
2018-04-02T12:45:18.566Z,7.80
2018-04-02T12:46:18.743Z,7.90
2018-04-02T12:47:19.182Z,7.70
2018-04-02T12:48:19.112Z,8.40
2018-04-02T12:49:19.298Z,8.20
2018-04-02T12:50:19.455Z,10.80
2018-04-02T12:51:19.629Z,8.10
2018-04-02T12:52:19.779Z,7.50
2018-04-02T12:53:20.036Z,8.60
2018-04-02T12:54:20.175Z,8.20
2018-04-02T12:55:20.362Z,7.60
2018-04-02T12:56:20.573Z,7.40
2018-04-02T12:57:20.760Z,8.30
2018-04-02T12:58:20.974Z,7.20
2018-04-02T12:59:21.123Z,7.40
2018-04-02T13:00:21.269Z,7.30
2018-04-02T13:01:21.457Z,8.00
2018-04-02T13:02:21.656Z,7.10
2018-04-02T13:03:21.845Z,7.90
2018-04-02T13:04:21.976Z,8.40
2018-04-02T13:05:22.173Z,8.60
2018-04-02T13:06:22.381Z,7.50
2018-04-02T13:07:22.518Z,7.50